Terminal Aerodrome Forecast
Issued by NWS

Home | Current Version | Previous Version | Text Only | Print | Product List | Glossary On
Versions: 1 2 3 4 5 6 7 8 9 10 11 12 13 14 15 16 17 18 19 20 21
000
FTUS41 KAKQ 250200 AAB
TAFPHF
TAF AMD
KPHF 250200Z 2502/2524 06008KT P6SM SCT015 BKN025 OVC045
     FM250400 05006KT P6SM BKN020 OVC035
     FM251500 04006KT P6SM BKN035 BKN050
     FM252000 04005KT P6SM SCT035 SCT120=

USA.gov is the U.S. government's official web portal to all federal, state and local government web resources and services.